Time;durP1;ratioP1;P1;durP2;ratioP2;P2;SDS_P1;SDS_P2;PMS_P1;PMS_P2;Temp;Humidity;BMP_temperature;BMP_pressure;BME280_temperature;BME280_humidity;BME280_pressure;Samples;Min_cycle;Max_cycle;Signal;HPM_P1;HPM_P2
2023/01/02 00:00:30;;;;;;;13.30;8.40;;;;;;;9.99;73.68;101038.42;108951;1255;37452;-80
2023/01/02 00:03:24;;;;;;;16.20;9.40;;;;;;;10.00;73.81;101038.39;108969;1252;37228;-76
2023/01/02 00:05:58;;;;;;;15.40;9.10;;;;;;;10.02;73.80;101034.86;108954;1272;37051;-77
2023/01/02 00:08:36;;;;;;;13.30;8.80;;;;;;;10.04;73.69;101029.75;108946;1250;37874;-79
2023/01/02 00:11:11;;;;;;;15.30;9.40;;;;;;;10.08;73.75;101022.50;108975;1272;37425;-79
2023/01/02 00:13:49;;;;;;;21.70;9.00;;;;;;;10.12;73.73;101019.98;108976;1251;37616;-77
2023/01/02 00:16:28;;;;;;;15.20;9.10;;;;;;;10.15;73.54;101013.80;108874;1251;174567;-77
2023/01/02 00:19:04;;;;;;;15.90;9.00;;;;;;;10.17;73.61;101010.95;108912;1254;37090;-77
2023/01/02 00:21:38;;;;;;;17.00;9.30;;;;;;;10.18;73.39;101011.61;108863;1254;174552;-78
2023/01/02 00:24:18;;;;;;;15.00;8.60;;;;;;;10.20;73.40;101019.77;108314;1272;918801;-79
2023/01/02 00:26:53;;;;;;;;;;;;;;;10.21;73.29;101019.58;108346;1252;907752;-76
2023/01/02 00:29:27;;;;;;;14.20;9.20;;;;;;;10.21;73.45;101020.77;108881;1254;37302;-76
2023/01/02 00:32:02;;;;;;;16.30;9.70;;;;;;;10.24;73.40;101019.69;104457;1272;3013540;-79
2023/01/02 00:34:37;;;;;;;15.10;9.80;;;;;;;10.26;73.17;101024.86;108961;1254;24464;-79
2023/01/02 00:37:17;;;;;;;15.40;9.20;;;;;;;10.27;73.13;101027.45;108994;1262;37281;-77
2023/01/02 00:39:52;;;;;;;15.80;9.80;;;;;;;10.27;73.00;101024.50;108918;1251;37083;-77
2023/01/02 00:42:29;;;;;;;15.30;8.60;;;;;;;10.27;73.06;101023.44;108968;1253;36987;-79
2023/01/02 00:45:04;;;;;;;15.60;9.10;;;;;;;10.30;72.89;101030.70;108995;1255;37064;-79
2023/01/02 00:47:38;;;;;;;15.50;9.50;;;;;;;10.32;72.97;101031.33;108956;1272;37330;-76
2023/01/02 00:50:19;;;;;;;16.60;10.30;;;;;;;10.36;72.99;101033.35;108933;1251;37039;-74
2023/01/02 00:52:54;;;;;;;15.70;9.50;;;;;;;10.36;72.91;101031.23;108946;1255;37732;-77
2023/01/02 00:55:31;;;;;;;16.90;10.00;;;;;;;10.37;72.94;101035.91;108932;1254;37622;-77
2023/01/02 00:58:06;;;;;;;14.20;9.00;;;;;;;10.39;72.87;101034.29;108864;1257;38574;-77
2023/01/02 01:00:40;;;;;;;15.50;9.30;;;;;;;10.43;72.88;101040.81;108890;1272;37166;-77
2023/01/02 01:03:19;;;;;;;14.10;9.20;;;;;;;10.46;72.92;101040.91;109019;1255;37064;-79
2023/01/02 01:05:57;;;;;;;14.20;10.00;;;;;;;10.49;72.80;101040.66;108969;1262;37331;-79
2023/01/02 01:08:36;;;;;;;13.40;9.40;;;;;;;10.50;72.60;101039.23;108807;1260;36945;-77
2023/01/02 01:11:18;;;;;;;14.40;9.20;;;;;;;10.50;72.57;101035.92;108777;1256;37149;-77
2023/01/02 01:13:59;;;;;;;14.30;9.00;;;;;;;10.49;72.52;101035.77;108779;1255;36434;-77
2023/01/02 01:16:39;;;;;;;14.50;9.40;;;;;;;10.48;72.32;101035.08;108772;1270;36458;-78
2023/01/02 01:19:14;;;;;;;17.00;9.50;;;;;;;10.49;72.49;101035.08;108853;1259;37088;-78
2023/01/02 01:21:50;;;;;;;15.90;9.50;;;;;;;10.53;72.33;101030.42;108828;1274;37289;-76
2023/01/02 01:24:29;;;;;;;16.60;9.60;;;;;;;10.54;72.35;101026.02;108785;1274;37087;-76
2023/01/02 01:27:06;;;;;;;16.30;10.40;;;;;;;10.54;72.31;101027.41;108856;1257;37315;-79
2023/01/02 01:29:47;;;;;;;17.10;10.20;;;;;;;10.53;72.40;101022.23;108975;1274;37064;-79
2023/01/02 01:32:31;;;;;;;17.50;9.80;;;;;;;10.53;72.24;101021.89;108954;1256;36963;-79
2023/01/02 01:35:07;;;;;;;15.60;9.10;;;;;;;10.52;72.22;101024.87;108819;1264;37218;-80
2023/01/02 01:37:43;;;;;;;13.50;9.10;;;;;;;10.53;72.18;101022.92;108830;1267;36974;-80
2023/01/02 01:40:20;;;;;;;15.90;9.30;;;;;;;10.52;72.09;101014.91;108830;1257;36952;-79
2023/01/02 01:42:55;;;;;;;14.10;9.10;;;;;;;10.55;72.20;101011.88;108780;1255;37389;-78
2023/01/02 01:45:30;;;;;;;15.80;10.10;;;;;;;10.56;72.15;101009.06;108837;1268;37168;-77
2023/01/02 01:48:07;;;;;;;14.30;9.00;;;;;;;10.57;72.23;101010.42;108808;1264;37321;-77
2023/01/02 01:50:41;;;;;;;14.70;9.10;;;;;;;10.55;72.07;101010.13;108705;1257;37087;-77
2023/01/02 01:53:18;;;;;;;14.40;9.20;;;;;;;10.53;72.01;101002.68;108722;1274;172429;-80
2023/01/02 01:55:55;;;;;;;14.80;9.80;;;;;;;10.52;72.11;100986.66;108837;1259;36857;-80
2023/01/02 01:58:32;;;;;;;12.60;9.10;;;;;;;10.52;72.12;100977.77;108800;1257;37550;-77
2023/01/02 02:01:06;;;;;;;14.90;9.20;;;;;;;10.53;72.12;100975.13;108764;1274;37124;-77
2023/01/02 02:03:45;;;;;;;16.10;9.30;;;;;;;10.51;72.19;100974.12;108775;1274;38012;-80
2023/01/02 02:06:25;;;;;;;15.80;9.70;;;;;;;10.50;72.11;100989.52;108769;1272;174541;-80
2023/01/02 02:09:11;;;;;;;15.00;9.20;;;;;;;10.48;72.21;100988.36;108936;1264;37064;-79
2023/01/02 02:11:47;;;;;;;14.50;8.10;;;;;;;10.45;72.12;100980.41;108972;1264;36640;-78
2023/01/02 02:14:22;;;;;;;12.20;8.80;;;;;;;10.45;72.25;100976.41;108984;1249;37017;-76
2023/01/02 02:17:05;;;;;;;16.20;8.40;;;;;;;10.47;72.38;100980.36;108950;1251;38396;-77
2023/01/02 02:20:09;;;;;;;13.60;9.30;;;;;;;10.49;72.46;100985.35;108907;1272;37157;-77
2023/01/02 02:23:20;;;;;;;15.00;10.10;;;;;;;10.48;72.27;100981.17;108971;1272;36980;-77
2023/01/02 02:26:32;;;;;;;17.60;10.00;;;;;;;10.45;72.18;100988.42;108786;1261;37008;-77
2023/01/02 02:30:03;;;;;;;13.70;8.90;;;;;;;10.40;72.38;100984.20;108878;1257;177049;-79
2023/01/02 02:33:03;;;;;;;13.70;8.90;;;;;;;10.37;72.37;100981.67;109005;1272;37003;-78
2023/01/02 02:35:49;;;;;;;15.70;8.90;;;;;;;10.35;72.33;100984.88;108664;1262;37044;-75
2023/01/02 02:38:40;;;;;;;15.10;8.90;;;;;;;10.34;72.43;100982.63;108968;1267;36789;-77
2023/01/02 02:41:21;;;;;;;17.30;9.60;;;;;;;10.34;72.38;100982.09;108965;1249;37184;-77
2023/01/02 02:44:03;;;;;;;14.50;9.40;;;;;;;10.35;72.57;100987.67;108985;1254;37431;-77
2023/01/02 02:46:51;;;;;;;14.40;9.60;;;;;;;10.32;72.53;100994.89;108841;1253;174304;-78
2023/01/02 02:49:39;;;;;;;15.30;8.40;;;;;;;10.30;72.51;100998.95;108947;1254;37416;-80
2023/01/02 02:52:20;;;;;;;15.40;8.20;;;;;;;10.27;72.53;100993.98;109028;1254;38334;-80
2023/01/02 02:55:00;;;;;;;14.80;9.10;;;;;;;10.23;72.71;100991.96;108929;1254;37515;-79
2023/01/02 02:57:35;;;;;;;16.10;8.90;;;;;;;10.20;72.79;100994.64;108973;1249;37070;-80
2023/01/02 03:00:14;;;;;;;13.30;8.60;;;;;;;10.17;72.92;100995.45;109004;1255;39264;-80
2023/01/02 03:02:48;;;;;;;13.30;8.00;;;;;;;10.14;73.07;100991.84;108891;1253;38128;-79
2023/01/02 03:05:34;;;;;;;12.30;7.90;;;;;;;10.11;73.21;100987.05;108968;1256;36815;-79
2023/01/02 03:08:11;;;;;;;12.20;7.90;;;;;;;10.07;73.23;100975.98;109056;1272;37108;-80
2023/01/02 03:10:49;;;;;;;14.20;8.40;;;;;;;10.06;73.42;100976.55;109030;1253;38209;-79
2023/01/02 03:13:34;;;;;;;16.70;9.20;;;;;;;10.05;73.57;100983.19;109004;1272;38258;-76
2023/01/02 03:16:20;;;;;;;13.70;8.50;;;;;;;10.05;73.66;100987.55;108946;1254;37538;-77
2023/01/02 03:19:02;;;;;;;15.30;9.50;;;;;;;10.05;73.68;100992.61;108930;1272;38467;-77
2023/01/02 03:21:42;;;;;;;16.00;9.50;;;;;;;10.05;73.82;100993.30;108966;1254;37097;-79
2023/01/02 03:24:31;;;;;;;12.30;8.50;;;;;;;10.04;73.77;100992.29;109038;1272;37102;-80
2023/01/02 03:27:09;;;;;;;13.90;9.50;;;;;;;10.03;73.95;100989.88;108950;1261;36977;-76
2023/01/02 03:29:46;;;;;;;15.40;9.10;;;;;;;10.03;73.90;100988.45;108974;1249;36877;-77
2023/01/02 03:32:24;;;;;;;12.90;8.80;;;;;;;10.01;73.84;100986.60;109008;1272;36641;-75
2023/01/02 03:35:01;;;;;;;15.10;8.20;;;;;;;9.98;73.89;100984.41;108876;1271;36414;-75
2023/01/02 03:37:39;;;;;;;11.70;7.80;;;;;;;9.96;74.09;100976.11;108955;1251;36772;-79
2023/01/02 03:40:21;;;;;;;14.00;8.40;;;;;;;9.95;74.04;100975.77;108978;1272;37136;-79
2023/01/02 03:43:01;;;;;;;12.80;8.80;;;;;;;9.93;74.08;100984.21;108948;1254;37594;-80
2023/01/02 03:45:44;;;;;;;16.00;9.60;;;;;;;9.92;74.22;100989.63;108964;1254;38499;-80
2023/01/02 03:48:27;;;;;;;14.50;8.30;;;;;;;9.90;74.30;100988.98;108967;1272;36997;-79
2023/01/02 03:51:03;;;;;;;11.80;8.00;;;;;;;9.89;74.32;100989.20;108984;1249;37072;-80
2023/01/02 03:53:37;;;;;;;12.20;8.00;;;;;;;9.87;74.38;100984.86;108953;1255;37430;-76
2023/01/02 03:56:20;;;;;;;14.10;8.40;;;;;;;9.85;74.32;100984.93;108925;1272;36989;-77
2023/01/02 03:58:58;;;;;;;11.80;8.10;;;;;;;9.83;74.49;100983.59;109000;1272;37265;-79
2023/01/02 04:01:39;;;;;;;12.70;8.70;;;;;;;9.79;74.46;100986.81;109096;1272;37534;-78
2023/01/02 04:04:21;;;;;;;13.40;9.00;;;;;;;9.77;74.66;100989.64;109111;1262;37087;-80
2023/01/02 04:07:00;;;;;;;13.20;8.20;;;;;;;9.75;74.66;100993.37;109100;1254;37131;-78
2023/01/02 04:09:36;;;;;;;13.90;8.50;;;;;;;9.73;74.81;100995.14;108970;1256;37064;-79
2023/01/02 04:12:13;;;;;;;13.40;8.50;;;;;;;9.74;75.12;100996.34;108985;1261;37259;-79
2023/01/02 04:14:52;;;;;;;12.50;8.40;;;;;;;9.76;75.02;101000.84;108950;1265;38561;-79
2023/01/02 04:17:27;;;;;;;14.10;8.60;;;;;;;9.77;75.20;101002.38;108905;1254;36761;-79
2023/01/02 04:20:05;;;;;;;13.10;9.10;;;;;;;9.77;75.13;101010.57;109045;1272;37126;-79
2023/01/02 04:22:41;;;;;;;12.60;8.10;;;;;;;9.73;75.06;101010.83;109029;1251;37292;-77
2023/01/02 04:25:19;;;;;;;15.40;8.20;;;;;;;9.70;75.11;101012.14;108945;1254;36108;-79
2023/01/02 04:27:57;;;;;;;11.70;7.80;;;;;;;9.68;75.11;101011.66;108937;1263;37547;-79
2023/01/02 04:30:32;;;;;;;12.60;8.80;;;;;;;9.65;75.41;101005.44;109085;1272;37102;-80
2023/01/02 04:33:10;;;;;;;13.30;8.20;;;;;;;9.63;75.88;101004.11;108978;1250;37158;-80
2023/01/02 04:35:44;;;;;;;13.30;8.30;;;;;;;9.61;76.12;101006.95;108978;1250;37178;-79
2023/01/02 04:38:19;;;;;;;14.90;7.80;;;;;;;9.63;76.48;101004.80;108976;1254;37363;-79
2023/01/02 04:40:56;;;;;;;15.60;8.70;;;;;;;9.64;76.74;100998.16;108988;1272;36224;-80
2023/01/02 04:43:32;;;;;;;14.50;8.50;;;;;;;9.63;76.73;100987.55;108988;1272;37240;-76
2023/01/02 04:46:09;;;;;;;13.70;9.10;;;;;;;9.63;76.90;100981.13;108951;1260;37588;-77
2023/01/02 04:48:46;;;;;;;14.00;9.00;;;;;;;9.63;77.16;100982.52;108942;1261;37395;-76
2023/01/02 04:51:22;;;;;;;12.90;7.90;;;;;;;9.63;77.12;100977.80;108892;1254;37017;-76
2023/01/02 04:53:58;;;;;;;16.80;9.10;;;;;;;9.65;77.43;100971.13;109111;1250;39036;-79
2023/01/02 04:56:38;;;;;;;13.90;8.80;;;;;;;9.67;77.28;100964.30;109032;1255;37184;-77
2023/01/02 04:59:15;;;;;;;16.10;9.50;;;;;;;9.69;77.26;100960.08;108963;1254;38298;-77
2023/01/02 05:01:54;;;;;;;15.90;8.80;;;;;;;9.70;77.32;100960.90;108997;1261;37020;-76
2023/01/02 05:04:29;;;;;;;15.10;8.50;;;;;;;9.70;77.43;100959.69;109002;1254;36747;-76
2023/01/02 05:07:06;;;;;;;18.00;9.70;;;;;;;9.70;77.92;100962.81;108976;1255;36960;-78
2023/01/02 05:09:46;;;;;;;14.50;8.90;;;;;;;9.70;78.19;100960.91;108977;1272;37328;-78
2023/01/02 05:12:22;;;;;;;14.70;9.50;;;;;;;9.71;78.45;100953.58;108937;1254;38624;-79
2023/01/02 05:15:01;;;;;;;13.40;8.60;;;;;;;9.69;78.51;100946.13;108942;1255;36707;-78
2023/01/02 05:17:39;;;;;;;18.70;9.00;;;;;;;9.66;78.69;100933.64;109001;1272;37216;-78
2023/01/02 05:20:16;;;;;;;14.70;9.00;;;;;;;9.66;79.14;100926.34;108986;1272;36087;-78
2023/01/02 05:25:42;;;;;;;17.60;10.40;;;;;;;9.64;79.42;100919.42;108948;1264;36608;-74
2023/01/02 05:28:17;;;;;;;16.60;9.70;;;;;;;9.62;79.39;100915.48;108946;1269;36527;-76
2023/01/02 05:30:52;;;;;;;13.60;9.60;;;;;;;9.57;79.70;100916.27;108943;1254;38607;-79
2023/01/02 05:33:27;;;;;;;16.00;9.60;;;;;;;9.58;79.74;100912.61;108955;1253;37364;-77
2023/01/02 05:36:01;;;;;;;14.20;10.30;;;;;;;9.59;79.91;100909.27;108852;1254;36405;-76
2023/01/02 05:38:46;;;;;;;15.90;11.10;;;;;;;9.59;80.00;100904.05;109042;1254;36987;-78
2023/01/02 05:41:24;;;;;;;14.20;9.40;;;;;;;9.56;79.86;100904.30;109019;1255;38583;-78
2023/01/02 05:44:01;;;;;;;14.20;8.90;;;;;;;9.54;79.77;100901.91;109007;1272;36998;-78
2023/01/02 05:46:38;;;;;;;12.80;9.20;;;;;;;9.50;79.74;100897.65;109054;1260;37384;-77
2023/01/02 05:49:13;;;;;;;14.80;9.70;;;;;;;9.51;79.83;100896.42;108944;1272;37678;-77
2023/01/02 05:51:50;;;;;;;14.90;10.00;;;;;;;9.47;79.73;100897.05;108952;1262;36345;-77
2023/01/02 05:54:25;;;;;;;14.90;9.10;;;;;;;9.40;79.74;100895.98;108979;1272;37233;-77
2023/01/02 05:57:02;;;;;;;11.80;8.60;;;;;;;9.34;79.79;100897.88;108955;1255;37073;-77
2023/01/02 05:59:38;;;;;;;13.90;9.20;;;;;;;9.28;79.71;100894.55;109013;1265;36025;-79
2023/01/02 06:02:19;;;;;;;14.30;9.40;;;;;;;9.23;79.83;100891.35;109116;1253;37570;-78
2023/01/02 06:05:17;;;;;;;15.80;9.70;;;;;;;9.15;79.73;100895.02;109073;1272;36946;-79
2023/01/02 06:07:57;;;;;;;15.90;9.30;;;;;;;9.07;79.94;100900.09;109007;1256;37611;-77
2023/01/02 06:10:34;;;;;;;13.10;8.60;;;;;;;9.02;80.04;100898.81;108950;1255;37263;-78
2023/01/02 06:13:13;;;;;;;15.40;8.70;;;;;;;9.00;80.02;100897.13;108984;1272;37328;-77
2023/01/02 06:15:48;;;;;;;13.40;9.50;;;;;;;8.95;80.09;100897.41;108943;1268;172487;-77
2023/01/02 06:18:25;;;;;;;15.30;9.80;;;;;;;8.88;79.98;100900.34;109031;1272;37047;-77
2023/01/02 06:21:08;;;;;;;13.60;9.10;;;;;;;8.82;80.19;100896.30;108713;1253;439621;-75
2023/01/02 06:23:44;;;;;;;12.50;9.30;;;;;;;8.79;80.20;100893.77;109036;1253;37006;-78
2023/01/02 06:26:24;;;;;;;12.70;8.90;;;;;;;8.74;80.22;100893.71;109035;1261;36960;-78
2023/01/02 06:29:02;;;;;;;15.80;9.30;;;;;;;8.69;80.14;100897.97;108996;1250;36959;-77
2023/01/02 06:31:37;;;;;;;16.20;8.60;;;;;;;8.66;80.24;100900.50;109045;1250;36962;-77
2023/01/02 06:34:16;;;;;;;14.20;9.20;;;;;;;8.63;80.26;100902.65;108980;1254;36966;-77
2023/01/02 06:36:54;;;;;;;14.10;8.90;;;;;;;8.60;80.39;100892.10;109092;1272;37026;-76
2023/01/02 06:39:33;;;;;;;14.50;8.80;;;;;;;8.55;80.29;100884.20;109031;1272;37219;-78
2023/01/02 06:42:11;;;;;;;12.90;9.10;;;;;;;8.53;80.57;100884.25;109046;1272;37244;-75
2023/01/02 06:44:46;;;;;;;15.20;9.50;;;;;;;8.50;80.39;100877.19;108978;1252;36199;-76
2023/01/02 06:47:20;;;;;;;17.30;9.40;;;;;;;8.45;80.58;100870.34;108993;1272;37021;-76
2023/01/02 06:49:56;;;;;;;15.40;9.00;;;;;;;8.41;80.51;100878.77;108958;1260;37087;-76
2023/01/02 06:52:36;;;;;;;15.60;8.80;;;;;;;8.40;80.68;100884.01;108929;1262;37352;-76
2023/01/02 06:55:13;;;;;;;13.80;8.90;;;;;;;8.40;80.58;100885.73;108944;1264;37087;-77
2023/01/02 06:57:49;;;;;;;17.20;8.90;;;;;;;8.40;80.70;100892.19;108957;1252;37144;-78
2023/01/02 07:00:25;;;;;;;11.80;8.20;;;;;;;8.40;80.69;100892.17;108881;1256;37303;-78
2023/01/02 07:03:01;;;;;;;12.60;8.10;;;;;;;8.40;80.80;100899.98;108985;1252;37159;-78
2023/01/02 07:05:35;;;;;;;13.00;8.30;;;;;;;8.40;80.84;100892.86;108953;1257;36184;-78
2023/01/02 07:08:10;;;;;;;13.70;8.20;;;;;;;8.41;80.79;100888.67;108946;1271;36961;-77
2023/01/02 07:10:46;;;;;;;14.10;8.30;;;;;;;8.45;80.90;100885.64;108941;1252;37058;-75
2023/01/02 07:13:23;;;;;;;14.20;8.10;;;;;;;8.48;80.87;100877.73;108962;1252;37076;-77
2023/01/02 07:15:57;;;;;;;15.00;8.40;;;;;;;8.52;80.89;100874.17;108949;1268;36955;-77
2023/01/02 07:18:35;;;;;;;11.20;7.40;;;;;;;8.57;80.83;100869.04;108890;1258;36979;-77
2023/01/02 07:21:10;;;;;;;10.70;8.10;;;;;;;8.64;80.65;100869.59;108962;1250;37066;-78
2023/01/02 07:23:46;;;;;;;13.70;8.90;;;;;;;8.67;80.44;100862.73;108982;1261;36131;-76
2023/01/02 07:26:25;;;;;;;12.70;8.20;;;;;;;8.72;80.29;100865.23;108982;1265;37134;-78
2023/01/02 07:29:04;;;;;;;11.70;7.90;;;;;;;8.76;80.35;100861.29;108968;1250;38628;-79
2023/01/02 07:31:38;;;;;;;;;;;;;;;8.80;80.16;100864.70;109036;1263;36054;-79
2023/01/02 07:34:15;;;;;;;15.40;8.40;;;;;;;8.82;80.22;100865.00;108911;1263;36946;-78
2023/01/02 07:36:55;;;;;;;9.80;7.10;;;;;;;8.87;80.11;100855.16;108959;1272;37084;-77
2023/01/02 07:39:30;;;;;;;14.10;8.40;;;;;;;8.90;79.91;100855.25;108930;1272;37285;-78
2023/01/02 07:42:08;;;;;;;11.70;7.90;;;;;;;8.91;79.76;100849.83;108936;1253;37368;-77
2023/01/02 07:44:45;;;;;;;10.90;8.00;;;;;;;8.93;79.89;100843.88;108933;1252;36298;-77
2023/01/02 07:47:20;;;;;;;11.10;7.80;;;;;;;8.94;79.70;100846.78;108959;1272;37026;-77
2023/01/02 07:49:56;;;;;;;13.40;8.00;;;;;;;8.96;79.61;100845.34;108949;1250;37057;-77
2023/01/02 07:52:32;;;;;;;10.80;7.60;;;;;;;8.98;79.39;100845.13;108959;1272;36992;-77
2023/01/02 07:55:11;;;;;;;14.00;8.80;;;;;;;9.00;79.49;100837.23;108942;1251;37054;-74
2023/01/02 07:57:49;;;;;;;11.60;7.60;;;;;;;9.02;79.47;100834.95;108992;1261;36106;-77
2023/01/02 08:00:27;;;;;;;9.90;7.60;;;;;;;9.06;79.38;100833.80;108900;1254;39165;-74
2023/01/02 08:03:03;;;;;;;9.90;7.10;;;;;;;9.10;79.18;100831.78;108926;1254;37220;-78
2023/01/02 08:05:38;;;;;;;11.50;7.60;;;;;;;9.15;79.27;100830.96;108958;1260;37100;-79
2023/01/02 08:08:13;;;;;;;10.70;7.70;;;;;;;9.17;79.06;100831.82;108932;1272;37000;-74
2023/01/02 08:10:47;;;;;;;9.90;7.50;;;;;;;9.19;79.11;100833.83;108915;1255;37198;-74
2023/01/02 08:13:21;;;;;;;12.30;7.50;;;;;;;9.24;79.15;100837.73;108878;1255;36989;-76
2023/01/02 08:16:04;;;;;;;9.90;7.10;;;;;;;9.29;79.01;100843.32;108947;1272;37109;-77
2023/01/02 08:18:39;;;;;;;11.80;7.10;;;;;;;9.36;78.96;100845.61;108942;1272;37298;-77
2023/01/02 08:21:13;;;;;;;12.40;8.50;;;;;;;9.43;78.95;100847.85;108939;1251;36998;-77
2023/01/02 08:23:50;;;;;;;11.90;7.30;;;;;;;9.49;78.82;100851.52;108961;1272;37240;-78
2023/01/02 08:26:26;;;;;;;12.20;7.20;;;;;;;9.52;78.50;100848.84;108945;1252;37135;-77
2023/01/02 08:29:01;;;;;;;10.00;7.50;;;;;;;9.56;78.41;100850.99;108905;1272;37317;-77
2023/01/02 08:31:35;;;;;;;9.50;7.60;;;;;;;9.61;78.49;100851.21;108853;1272;172493;-77
2023/01/02 08:34:14;;;;;;;11.20;7.60;;;;;;;9.66;78.45;100850.55;108913;1262;37222;-76
2023/01/02 08:36:48;;;;;;;12.90;8.00;;;;;;;9.72;78.34;100849.88;108979;1268;36154;-76
2023/01/02 08:39:26;;;;;;;9.30;6.80;;;;;;;9.76;78.26;100846.81;108961;1257;36993;-77
2023/01/02 08:42:01;;;;;;;10.70;7.60;;;;;;;9.80;77.84;100842.34;108983;1254;37584;-76
2023/01/02 08:44:36;;;;;;;10.90;7.60;;;;;;;9.84;77.70;100836.81;108927;1272;37135;-77
2023/01/02 08:47:15;;;;;;;10.70;7.30;;;;;;;9.90;77.61;100833.02;109003;1251;37434;-79
2023/01/02 08:49:50;;;;;;;;;;;;;;;9.95;77.58;100827.28;108929;1255;37514;-79
2023/01/02 08:52:27;;;;;;;13.60;7.90;;;;;;;9.96;77.54;100824.33;108836;1268;172487;-76
2023/01/02 08:55:04;;;;;;;11.10;8.00;;;;;;;10.00;77.28;100822.79;108931;1272;37257;-77
2023/01/02 08:57:40;;;;;;;10.80;8.00;;;;;;;10.06;77.20;100822.81;108942;1255;36941;-75
2023/01/02 09:00:19;;;;;;;10.80;7.50;;;;;;;10.13;77.13;100817.35;108948;1272;36855;-75
2023/01/02 09:02:54;;;;;;;10.50;8.20;;;;;;;10.21;77.04;100816.63;108903;1254;37190;-77
2023/01/02 09:05:30;;;;;;;11.20;7.50;;;;;;;10.26;76.74;100812.13;108944;1256;37124;-78
2023/01/02 09:08:08;;;;;;;13.80;8.10;;;;;;;10.30;76.49;100810.27;108899;1272;36987;-79
2023/01/02 09:10:43;;;;;;;13.90;9.00;;;;;;;10.36;76.22;100813.59;108869;1250;174587;-79
2023/01/02 09:13:19;;;;;;;13.80;7.70;;;;;;;10.41;76.08;100815.86;108940;1251;36716;-76
2023/01/02 09:15:54;;;;;;;13.30;7.80;;;;;;;10.50;75.79;100814.91;108931;1272;38323;-77
2023/01/02 09:18:28;;;;;;;11.00;7.80;;;;;;;10.59;75.63;100816.19;108973;1255;37777;-78
2023/01/02 09:21:05;;;;;;;13.80;8.70;;;;;;;10.71;75.68;100822.11;108898;1272;38912;-78
2023/01/02 09:23:40;;;;;;;12.90;8.60;;;;;;;10.85;75.25;100831.59;108847;1272;174539;-77
2023/01/02 09:26:21;;;;;;;15.00;8.70;;;;;;;10.99;74.93;100828.37;108894;1256;37503;-77
2023/01/02 09:28:55;;;;;;;11.40;8.60;;;;;;;11.12;74.81;100822.71;108976;1272;37352;-76
2023/01/02 09:31:32;;;;;;;14.40;8.70;;;;;;;11.29;74.74;100816.89;109027;1272;37227;-75
2023/01/02 09:34:10;;;;;;;15.50;9.20;;;;;;;11.47;73.94;100806.15;109031;1255;38349;-77
2023/01/02 09:36:51;;;;;;;14.50;9.10;;;;;;;11.68;73.69;100808.02;108958;1249;36818;-77
2023/01/02 09:39:27;;;;;;;14.20;9.30;;;;;;;11.85;73.00;100806.75;108882;1266;38456;-77
2023/01/02 09:42:07;;;;;;;13.30;8.70;;;;;;;11.99;72.46;100804.51;108910;1249;36782;-79
2023/01/02 09:44:45;;;;;;;12.30;8.50;;;;;;;12.10;71.81;100800.94;109019;1250;38249;-80
2023/01/02 09:47:28;;;;;;;13.20;9.10;;;;;;;12.24;71.72;100801.98;108941;1266;36784;-77
2023/01/02 09:50:06;;;;;;;13.30;8.90;;;;;;;12.45;71.40;100797.50;109011;1257;36325;-76
2023/01/02 09:52:44;;;;;;;12.20;9.10;;;;;;;12.69;71.01;100789.20;108973;1252;37232;-79
2023/01/02 09:55:22;;;;;;;13.30;9.20;;;;;;;12.92;70.25;100786.86;108929;1272;37835;-78
2023/01/02 09:58:02;;;;;;;15.40;10.00;;;;;;;13.17;70.01;100787.41;108957;1254;36975;-79
2023/01/02 10:00:43;;;;;;;14.20;9.30;;;;;;;13.34;69.13;100786.20;108964;1253;36005;-79
2023/01/02 10:03:24;;;;;;;13.00;9.10;;;;;;;13.45;68.92;100785.54;108938;1272;38548;-77
2023/01/02 10:06:25;;;;;;;12.50;9.50;;;;;;;13.51;67.46;100779.34;108972;1254;38242;-78
2023/01/02 10:09:07;;;;;;;14.10;9.30;;;;;;;13.51;67.33;100771.44;109004;1254;36965;-77
2023/01/02 10:11:53;;;;;;;14.00;9.40;;;;;;;13.48;67.47;100765.60;108962;1272;37154;-76
2023/01/02 10:14:42;;;;;;;13.70;9.40;;;;;;;13.44;67.13;100764.89;108966;1262;37176;-78
2023/01/02 10:17:21;;;;;;;15.40;9.70;;;;;;;13.41;67.48;100761.66;109005;1272;37267;-76
2023/01/02 10:20:03;;;;;;;15.30;10.10;;;;;;;13.40;67.18;100759.48;108969;1272;36975;-76
2023/01/02 10:22:43;;;;;;;15.00;9.70;;;;;;;13.36;66.80;100755.77;108980;1262;37094;-74
2023/01/02 10:25:24;;;;;;;13.00;9.90;;;;;;;13.33;67.06;100754.52;108960;1272;37000;-74
2023/01/02 10:28:02;;;;;;;15.30;9.90;;;;;;;13.25;66.77;100749.59;108999;1272;37773;-77
2023/01/02 10:30:43;;;;;;;15.60;9.80;;;;;;;13.16;66.85;100743.98;109034;1253;37461;-77
2023/01/02 10:33:23;;;;;;;15.00;9.40;;;;;;;13.08;66.47;100743.12;108911;1250;37060;-77
2023/01/02 10:36:04;;;;;;;14.30;9.70;;;;;;;13.01;66.76;100742.38;108943;1256;36971;-76
2023/01/02 10:38:43;;;;;;;12.90;9.00;;;;;;;12.92;66.65;100739.77;108997;1254;36146;-74
2023/01/02 10:41:22;;;;;;;14.30;9.60;;;;;;;12.85;66.85;100732.02;109028;1272;37469;-79
2023/01/02 10:44:04;;;;;;;16.00;9.70;;;;;;;12.79;66.92;100731.91;109051;1272;37367;-80
2023/01/02 10:46:40;;;;;;;15.80;9.90;;;;;;;12.74;66.98;100729.81;109083;1255;37286;-81
2023/01/02 10:49:24;;;;;;;13.70;9.60;;;;;;;12.71;66.74;100729.95;109201;1272;36966;-82
2023/01/02 10:52:11;;;;;;;15.50;10.20;;;;;;;12.66;66.89;100728.40;109137;1270;37027;-81
2023/01/02 10:54:56;;;;;;;13.90;9.20;;;;;;;12.61;66.86;100730.34;109081;1250;36764;-80
2023/01/02 10:57:50;;;;;;;15.30;9.90;;;;;;;12.59;67.17;100725.18;109090;1268;36519;-80
2023/01/02 11:00:39;;;;;;;16.90;9.30;;;;;;;12.59;66.99;100723.80;108906;1254;174262;-80
2023/01/02 11:03:24;;;;;;;18.10;10.70;;;;;;;12.59;66.59;100727.09;109047;1272;36491;-82
2023/01/02 11:06:03;;;;;;;15.10;10.10;;;;;;;12.56;66.70;100724.60;109096;1272;36941;-83
2023/01/02 11:08:55;;;;;;;18.20;10.00;;;;;;;12.56;67.11;100733.71;108996;1257;36948;-80
2023/01/02 11:11:34;;;;;;;15.40;9.90;;;;;;;12.56;67.13;100736.66;109053;1271;36981;-80
2023/01/02 11:14:12;;;;;;;14.60;9.30;;;;;;;12.56;67.05;100731.43;109021;1262;36974;-80
2023/01/02 11:16:47;;;;;;;11.70;8.60;;;;;;;12.54;67.11;100728.20;108952;1272;38664;-82
2023/01/02 11:19:27;;;;;;;17.10;10.00;;;;;;;12.54;67.13;100726.09;109066;1252;37153;-82
2023/01/02 11:22:15;;;;;;;14.90;9.50;;;;;;;12.52;66.98;100717.40;109118;1254;36265;-79
2023/01/02 11:25:00;;;;;;;14.50;9.70;;;;;;;12.48;66.84;100704.80;109078;1262;37293;-80
2023/01/02 11:27:44;;;;;;;13.10;9.30;;;;;;;12.45;66.76;100701.45;109024;1250;37283;-77
2023/01/02 11:30:43;;;;;;;13.50;9.40;;;;;;;12.42;66.62;100697.20;108962;1253;38665;-76
2023/01/02 11:33:29;;;;;;;13.70;8.90;;;;;;;12.42;66.75;100699.11;109024;1260;38280;-77
2023/01/02 11:36:20;;;;;;;14.60;9.70;;;;;;;12.44;66.58;100704.11;108873;1252;174531;-77
2023/01/02 11:38:57;;;;;;;16.10;9.10;;;;;;;12.46;66.41;100699.30;108920;1254;37053;-78
2023/01/02 11:44:37;;;;;;;15.70;9.10;;;;;;;12.53;66.51;100690.80;108759;1252;37067;-76
2023/01/02 11:47:12;;;;;;;15.80;9.20;;;;;;;12.55;66.45;100699.98;109007;1253;37354;-76
2023/01/02 11:49:48;;;;;;;16.00;8.80;;;;;;;12.56;66.59;100697.13;108916;1272;36996;-77
2023/01/02 11:52:35;;;;;;;16.00;9.30;;;;;;;12.56;66.27;100700.27;108952;1259;37320;-77
2023/01/02 11:55:19;;;;;;;14.40;9.60;;;;;;;12.55;66.34;100690.52;108873;1254;38277;-76
2023/01/02 11:57:58;;;;;;;15.30;9.40;;;;;;;12.51;66.75;100691.94;108927;1252;37054;-77
2023/01/02 12:00:35;;;;;;;15.70;9.50;;;;;;;12.48;66.96;100688.89;108906;1257;38757;-76
2023/01/02 12:03:17;;;;;;;18.80;9.00;;;;;;;12.47;67.12;100680.51;108937;1254;37337;-77
2023/01/02 12:06:07;;;;;;;13.20;8.80;;;;;;;12.46;67.18;100696.52;108933;1250;37144;-77
2023/01/02 12:08:50;;;;;;;13.30;8.50;;;;;;;12.46;67.39;100693.19;108931;1253;38675;-76
2023/01/02 12:11:35;;;;;;;14.20;9.00;;;;;;;12.47;67.43;100679.14;108987;1254;37422;-77